sensor_id;sensor_type;location;lat;lon;timestamp;temperature;humidity
42031;DHT22;27709;52.036;5.906;2023-05-07T00:02:15;15.10;99.90
42031;DHT22;27709;52.036;5.906;2023-05-07T00:04:40;15.10;99.90
42031;DHT22;27709;52.036;5.906;2023-05-07T00:07:06;15.20;99.90
42031;DHT22;27709;52.036;5.906;2023-05-07T00:09:31;15.20;99.90
42031;DHT22;27709;52.036;5.906;2023-05-07T00:11:57;15.20;99.90
42031;DHT22;27709;52.036;5.906;2023-05-07T00:14:22;15.20;99.90
42031;DHT22;27709;52.036;5.906;2023-05-07T00:16:48;15.20;99.90
42031;DHT22;27709;52.036;5.906;2023-05-07T00:19:13;15.10;99.90
42031;DHT22;27709;52.036;5.906;2023-05-07T00:21:38;15.10;99.90
42031;DHT22;27709;52.036;5.906;2023-05-07T00:24:04;15.10;99.90
42031;DHT22;27709;52.036;5.906;2023-05-07T00:26:30;15.10;99.90
42031;DHT22;27709;52.036;5.906;2023-05-07T00:28:55;15.10;99.90
42031;DHT22;27709;52.036;5.906;2023-05-07T00:31:20;15.10;99.90
42031;DHT22;27709;52.036;5.906;2023-05-07T00:33:46;15.10;99.90
42031;DHT22;27709;52.036;5.906;2023-05-07T00:36:11;15.10;99.90
42031;DHT22;27709;52.036;5.906;2023-05-07T00:38:37;15.10;99.90
42031;DHT22;27709;52.036;5.906;2023-05-07T00:41:02;15.10;99.90
42031;DHT22;27709;52.036;5.906;2023-05-07T00:43:28;15.00;99.90
42031;DHT22;27709;52.036;5.906;2023-05-07T00:45:53;15.00;99.90
42031;DHT22;27709;52.036;5.906;2023-05-07T00:48:19;15.00;99.90
42031;DHT22;27709;52.036;5.906;2023-05-07T00:50:44;15.00;99.90
42031;DHT22;27709;52.036;5.906;2023-05-07T00:53:10;15.00;99.90
42031;DHT22;27709;52.036;5.906;2023-05-07T00:55:36;14.90;99.90
42031;DHT22;27709;52.036;5.906;2023-05-07T00:58:02;14.90;99.90
42031;DHT22;27709;52.036;5.906;2023-05-07T01:00:27;14.90;99.90
42031;DHT22;27709;52.036;5.906;2023-05-07T01:02:53;14.90;99.90
42031;DHT22;27709;52.036;5.906;2023-05-07T01:05:19;14.90;99.90
42031;DHT22;27709;52.036;5.906;2023-05-07T01:07:45;14.90;99.90
42031;DHT22;27709;52.036;5.906;2023-05-07T01:10:11;14.80;99.90
42031;DHT22;27709;52.036;5.906;2023-05-07T01:12:37;14.80;99.90
42031;DHT22;27709;52.036;5.906;2023-05-07T01:15:03;14.80;99.90
42031;DHT22;27709;52.036;5.906;2023-05-07T01:17:33;14.80;99.90
42031;DHT22;27709;52.036;5.906;2023-05-07T01:19:58;14.80;99.90
42031;DHT22;27709;52.036;5.906;2023-05-07T01:22:28;14.80;99.90
42031;DHT22;27709;52.036;5.906;2023-05-07T01:24:55;14.70;99.90
42031;DHT22;27709;52.036;5.906;2023-05-07T01:27:21;14.70;99.90
42031;DHT22;27709;52.036;5.906;2023-05-07T01:29:46;14.70;99.90
42031;DHT22;27709;52.036;5.906;2023-05-07T01:32:12;14.70;99.90
42031;DHT22;27709;52.036;5.906;2023-05-07T01:34:38;14.70;99.90
42031;DHT22;27709;52.036;5.906;2023-05-07T01:37:04;14.70;99.90
42031;DHT22;27709;52.036;5.906;2023-05-07T01:39:30;14.60;99.90
42031;DHT22;27709;52.036;5.906;2023-05-07T01:41:56;14.60;99.90
42031;DHT22;27709;52.036;5.906;2023-05-07T01:44:22;14.70;99.90
42031;DHT22;27709;52.036;5.906;2023-05-07T01:46:47;14.70;99.90
42031;DHT22;27709;52.036;5.906;2023-05-07T01:49:14;14.70;99.90
42031;DHT22;27709;52.036;5.906;2023-05-07T01:51:39;14.70;99.90
42031;DHT22;27709;52.036;5.906;2023-05-07T01:54:05;14.70;99.90
42031;DHT22;27709;52.036;5.906;2023-05-07T01:56:30;14.70;99.90
42031;DHT22;27709;52.036;5.906;2023-05-07T01:58:56;14.70;99.90
42031;DHT22;27709;52.036;5.906;2023-05-07T02:01:21;14.70;99.90
42031;DHT22;27709;52.036;5.906;2023-05-07T02:03:47;14.70;99.90
42031;DHT22;27709;52.036;5.906;2023-05-07T02:06:12;14.70;99.90
42031;DHT22;27709;52.036;5.906;2023-05-07T02:08:38;14.70;99.90
42031;DHT22;27709;52.036;5.906;2023-05-07T02:11:04;14.70;99.90
42031;DHT22;27709;52.036;5.906;2023-05-07T02:13:31;14.70;99.90
42031;DHT22;27709;52.036;5.906;2023-05-07T02:15:57;14.60;99.90
42031;DHT22;27709;52.036;5.906;2023-05-07T02:18:22;14.60;99.90
42031;DHT22;27709;52.036;5.906;2023-05-07T02:20:48;14.60;99.90
42031;DHT22;27709;52.036;5.906;2023-05-07T02:23:13;14.60;99.90
42031;DHT22;27709;52.036;5.906;2023-05-07T02:25:38;14.60;99.90
42031;DHT22;27709;52.036;5.906;2023-05-07T02:28:04;14.60;99.90
42031;DHT22;27709;52.036;5.906;2023-05-07T02:30:29;14.50;99.90
42031;DHT22;27709;52.036;5.906;2023-05-07T02:32:55;14.50;99.90
42031;DHT22;27709;52.036;5.906;2023-05-07T02:35:20;14.40;99.90
42031;DHT22;27709;52.036;5.906;2023-05-07T02:37:46;14.40;99.90
42031;DHT22;27709;52.036;5.906;2023-05-07T02:40:11;14.40;99.90
42031;DHT22;27709;52.036;5.906;2023-05-07T02:42:37;14.30;99.90
42031;DHT22;27709;52.036;5.906;2023-05-07T02:45:02;14.30;99.90
42031;DHT22;27709;52.036;5.906;2023-05-07T02:47:28;14.30;99.90
42031;DHT22;27709;52.036;5.906;2023-05-07T02:49:54;14.30;99.90
42031;DHT22;27709;52.036;5.906;2023-05-07T02:52:20;14.20;99.90
42031;DHT22;27709;52.036;5.906;2023-05-07T02:54:45;14.30;99.90
42031;DHT22;27709;52.036;5.906;2023-05-07T02:57:11;14.30;99.90
42031;DHT22;27709;52.036;5.906;2023-05-07T02:59:36;14.40;99.90
42031;DHT22;27709;52.036;5.906;2023-05-07T03:02:02;14.40;99.90
42031;DHT22;27709;52.036;5.906;2023-05-07T03:04:27;14.50;99.90
42031;DHT22;27709;52.036;5.906;2023-05-07T03:06:52;14.50;99.90
42031;DHT22;27709;52.036;5.906;2023-05-07T03:09:18;14.50;99.90
42031;DHT22;27709;52.036;5.906;2023-05-07T03:11:43;14.50;99.90
42031;DHT22;27709;52.036;5.906;2023-05-07T03:14:09;14.50;99.90
42031;DHT22;27709;52.036;5.906;2023-05-07T03:16:34;14.50;99.90
42031;DHT22;27709;52.036;5.906;2023-05-07T03:19:00;14.40;99.90
42031;DHT22;27709;52.036;5.906;2023-05-07T03:21:26;14.40;99.90
42031;DHT22;27709;52.036;5.906;2023-05-07T03:23:51;14.40;99.90
42031;DHT22;27709;52.036;5.906;2023-05-07T03:26:17;14.40;99.90
42031;DHT22;27709;52.036;5.906;2023-05-07T03:28:42;14.30;99.90
42031;DHT22;27709;52.036;5.906;2023-05-07T03:31:08;14.30;99.90
42031;DHT22;27709;52.036;5.906;2023-05-07T03:33:33;14.20;99.90
42031;DHT22;27709;52.036;5.906;2023-05-07T03:35:59;14.20;99.90
42031;DHT22;27709;52.036;5.906;2023-05-07T03:38:24;14.20;99.90
42031;DHT22;27709;52.036;5.906;2023-05-07T03:40:50;14.30;99.90
42031;DHT22;27709;52.036;5.906;2023-05-07T03:43:15;14.40;99.90
42031;DHT22;27709;52.036;5.906;2023-05-07T03:45:41;14.40;99.90
42031;DHT22;27709;52.036;5.906;2023-05-07T03:48:07;14.40;99.90
42031;DHT22;27709;52.036;5.906;2023-05-07T03:50:32;14.40;99.90
42031;DHT22;27709;52.036;5.906;2023-05-07T03:52:58;14.30;99.90
42031;DHT22;27709;52.036;5.906;2023-05-07T03:55:23;14.30;99.90
42031;DHT22;27709;52.036;5.906;2023-05-07T03:57:49;14.30;99.90
42031;DHT22;27709;52.036;5.906;2023-05-07T04:00:14;14.30;99.90
42031;DHT22;27709;52.036;5.906;2023-05-07T04:02:40;14.30;99.90
42031;DHT22;27709;52.036;5.906;2023-05-07T04:05:06;14.30;99.90
42031;DHT22;27709;52.036;5.906;2023-05-07T04:07:31;14.30;99.90
42031;DHT22;27709;52.036;5.906;2023-05-07T04:09:56;14.30;99.90
42031;DHT22;27709;52.036;5.906;2023-05-07T04:12:22;14.30;99.90
42031;DHT22;27709;52.036;5.906;2023-05-07T04:14:47;14.30;99.90
42031;DHT22;27709;52.036;5.906;2023-05-07T04:17:13;14.30;99.90
42031;DHT22;27709;52.036;5.906;2023-05-07T04:19:38;14.40;99.90
42031;DHT22;27709;52.036;5.906;2023-05-07T04:22:04;14.40;99.90
42031;DHT22;27709;52.036;5.906;2023-05-07T04:24:32;14.40;99.90
42031;DHT22;27709;52.036;5.906;2023-05-07T04:27:01;14.50;99.90
42031;DHT22;27709;52.036;5.906;2023-05-07T04:29:26;14.50;99.90
42031;DHT22;27709;52.036;5.906;2023-05-07T04:31:52;14.50;99.90
42031;DHT22;27709;52.036;5.906;2023-05-07T04:34:17;14.50;99.90
42031;DHT22;27709;52.036;5.906;2023-05-07T04:36:43;14.50;99.90
42031;DHT22;27709;52.036;5.906;2023-05-07T04:39:08;14.60;99.90
42031;DHT22;27709;52.036;5.906;2023-05-07T04:41:36;14.60;99.90
42031;DHT22;27709;52.036;5.906;2023-05-07T04:44:01;14.70;99.90
42031;DHT22;27709;52.036;5.906;2023-05-07T04:46:29;14.70;99.90
42031;DHT22;27709;52.036;5.906;2023-05-07T04:48:55;14.80;99.90
42031;DHT22;27709;52.036;5.906;2023-05-07T04:51:20;14.80;99.90
42031;DHT22;27709;52.036;5.906;2023-05-07T04:53:46;14.80;99.90
42031;DHT22;27709;52.036;5.906;2023-05-07T04:56:11;14.80;99.90
42031;DHT22;27709;52.036;5.906;2023-05-07T04:58:36;14.80;99.90
42031;DHT22;27709;52.036;5.906;2023-05-07T05:01:02;14.80;99.90
42031;DHT22;27709;52.036;5.906;2023-05-07T05:03:27;14.90;99.90
42031;DHT22;27709;52.036;5.906;2023-05-07T05:05:53;14.90;99.90
42031;DHT22;27709;52.036;5.906;2023-05-07T05:08:18;15.00;99.90
42031;DHT22;27709;52.036;5.906;2023-05-07T05:10:44;14.90;99.90
42031;DHT22;27709;52.036;5.906;2023-05-07T05:13:09;15.00;99.90
42031;DHT22;27709;52.036;5.906;2023-05-07T05:15:38;15.00;99.90
42031;DHT22;27709;52.036;5.906;2023-05-07T05:18:03;14.90;99.90
42031;DHT22;27709;52.036;5.906;2023-05-07T05:20:28;15.00;99.90
42031;DHT22;27709;52.036;5.906;2023-05-07T05:22:54;15.00;99.90
42031;DHT22;27709;52.036;5.906;2023-05-07T05:25:20;15.00;99.90
42031;DHT22;27709;52.036;5.906;2023-05-07T05:27:45;15.00;99.90
42031;DHT22;27709;52.036;5.906;2023-05-07T05:30:11;15.00;99.90
42031;DHT22;27709;52.036;5.906;2023-05-07T05:32:36;15.00;99.90
42031;DHT22;27709;52.036;5.906;2023-05-07T05:35:02;15.00;99.90
42031;DHT22;27709;52.036;5.906;2023-05-07T05:37:27;15.00;99.90
42031;DHT22;27709;52.036;5.906;2023-05-07T05:39:55;14.90;99.90
42031;DHT22;27709;52.036;5.906;2023-05-07T05:42:21;14.90;99.90
42031;DHT22;27709;52.036;5.906;2023-05-07T05:44:46;14.90;99.90
42031;DHT22;27709;52.036;5.906;2023-05-07T05:47:11;14.90;99.90
42031;DHT22;27709;52.036;5.906;2023-05-07T05:49:37;14.90;99.90
42031;DHT22;27709;52.036;5.906;2023-05-07T05:52:02;14.90;99.90
42031;DHT22;27709;52.036;5.906;2023-05-07T05:54:28;14.90;99.90
42031;DHT22;27709;52.036;5.906;2023-05-07T05:56:53;14.90;99.90
42031;DHT22;27709;52.036;5.906;2023-05-07T05:59:19;14.90;99.90
42031;DHT22;27709;52.036;5.906;2023-05-07T06:01:44;14.90;99.90
42031;DHT22;27709;52.036;5.906;2023-05-07T06:04:10;15.00;99.90
42031;DHT22;27709;52.036;5.906;2023-05-07T06:06:35;14.90;99.90
42031;DHT22;27709;52.036;5.906;2023-05-07T06:09:01;14.90;99.90
42031;DHT22;27709;52.036;5.906;2023-05-07T06:11:26;14.90;99.90
42031;DHT22;27709;52.036;5.906;2023-05-07T06:13:52;14.90;99.90
42031;DHT22;27709;52.036;5.906;2023-05-07T06:16:17;14.90;99.90
42031;DHT22;27709;52.036;5.906;2023-05-07T06:18:42;14.90;99.90
42031;DHT22;27709;52.036;5.906;2023-05-07T06:21:09;14.90;99.90
42031;DHT22;27709;52.036;5.906;2023-05-07T06:23:34;14.90;99.90
42031;DHT22;27709;52.036;5.906;2023-05-07T06:26:00;14.90;99.90
42031;DHT22;27709;52.036;5.906;2023-05-07T06:28:25;14.90;99.90
42031;DHT22;27709;52.036;5.906;2023-05-07T06:30:51;14.90;99.90
42031;DHT22;27709;52.036;5.906;2023-05-07T06:33:16;15.00;99.90
42031;DHT22;27709;52.036;5.906;2023-05-07T06:35:42;15.10;99.90
42031;DHT22;27709;52.036;5.906;2023-05-07T06:38:07;15.10;99.90
42031;DHT22;27709;52.036;5.906;2023-05-07T06:40:32;15.10;99.90
42031;DHT22;27709;52.036;5.906;2023-05-07T06:42:58;15.20;99.90
42031;DHT22;27709;52.036;5.906;2023-05-07T06:45:23;15.30;99.90
42031;DHT22;27709;52.036;5.906;2023-05-07T06:47:50;15.30;99.90
42031;DHT22;27709;52.036;5.906;2023-05-07T06:50:15;15.30;99.90
42031;DHT22;27709;52.036;5.906;2023-05-07T06:52:42;15.40;99.90
42031;DHT22;27709;52.036;5.906;2023-05-07T06:55:09;15.40;99.90
42031;DHT22;27709;52.036;5.906;2023-05-07T06:57:34;15.50;99.90
42031;DHT22;27709;52.036;5.906;2023-05-07T06:59:59;15.60;99.90
42031;DHT22;27709;52.036;5.906;2023-05-07T07:02:25;15.60;99.90
42031;DHT22;27709;52.036;5.906;2023-05-07T07:04:51;15.60;99.90
42031;DHT22;27709;52.036;5.906;2023-05-07T07:07:16;15.60;99.90
42031;DHT22;27709;52.036;5.906;2023-05-07T07:09:41;15.70;99.90
42031;DHT22;27709;52.036;5.906;2023-05-07T07:12:07;15.70;99.90
42031;DHT22;27709;52.036;5.906;2023-05-07T07:14:32;15.80;99.90
42031;DHT22;27709;52.036;5.906;2023-05-07T07:16:58;15.90;99.90
42031;DHT22;27709;52.036;5.906;2023-05-07T07:19:23;16.00;99.90
42031;DHT22;27709;52.036;5.906;2023-05-07T07:21:49;16.10;99.90
42031;DHT22;27709;52.036;5.906;2023-05-07T07:24:14;16.20;99.90
42031;DHT22;27709;52.036;5.906;2023-05-07T07:26:44;16.20;99.90
42031;DHT22;27709;52.036;5.906;2023-05-07T07:29:09;16.30;99.90
42031;DHT22;27709;52.036;5.906;2023-05-07T07:31:35;16.50;99.90
42031;DHT22;27709;52.036;5.906;2023-05-07T07:34:00;16.50;99.90
42031;DHT22;27709;52.036;5.906;2023-05-07T07:36:26;16.60;99.90
42031;DHT22;27709;52.036;5.906;2023-05-07T07:38:52;16.70;99.90
42031;DHT22;27709;52.036;5.906;2023-05-07T07:41:17;16.80;99.90
42031;DHT22;27709;52.036;5.906;2023-05-07T07:43:43;16.90;99.90
42031;DHT22;27709;52.036;5.906;2023-05-07T07:46:08;17.20;99.90
42031;DHT22;27709;52.036;5.906;2023-05-07T07:48:34;17.30;99.90
42031;DHT22;27709;52.036;5.906;2023-05-07T07:50:59;17.50;99.90
42031;DHT22;27709;52.036;5.906;2023-05-07T07:53:25;17.70;99.90
42031;DHT22;27709;52.036;5.906;2023-05-07T07:55:50;18.00;99.90
42031;DHT22;27709;52.036;5.906;2023-05-07T07:58:16;18.40;99.90
42031;DHT22;27709;52.036;5.906;2023-05-07T08:00:41;18.60;99.90
42031;DHT22;27709;52.036;5.906;2023-05-07T08:03:09;18.70;99.90
42031;DHT22;27709;52.036;5.906;2023-05-07T08:05:34;18.80;99.90
42031;DHT22;27709;52.036;5.906;2023-05-07T08:08:00;18.90;99.90
42031;DHT22;27709;52.036;5.906;2023-05-07T08:10:26;19.10;99.90
42031;DHT22;27709;52.036;5.906;2023-05-07T08:12:51;19.10;99.90
42031;DHT22;27709;52.036;5.906;2023-05-07T08:15:17;19.00;99.90
42031;DHT22;27709;52.036;5.906;2023-05-07T08:17:43;18.90;99.90
42031;DHT22;27709;52.036;5.906;2023-05-07T08:20:08;18.90;99.90
42031;DHT22;27709;52.036;5.906;2023-05-07T08:22:34;18.80;99.90
42031;DHT22;27709;52.036;5.906;2023-05-07T08:25:00;18.80;99.90
42031;DHT22;27709;52.036;5.906;2023-05-07T08:27:25;19.00;99.90
42031;DHT22;27709;52.036;5.906;2023-05-07T08:29:51;19.00;99.90
42031;DHT22;27709;52.036;5.906;2023-05-07T08:32:16;19.10;99.90
42031;DHT22;27709;52.036;5.906;2023-05-07T08:34:42;19.30;99.90
42031;DHT22;27709;52.036;5.906;2023-05-07T08:37:07;19.40;99.90
42031;DHT22;27709;52.036;5.906;2023-05-07T08:39:32;19.60;99.90
42031;DHT22;27709;52.036;5.906;2023-05-07T08:41:59;19.60;99.90
42031;DHT22;27709;52.036;5.906;2023-05-07T08:44:26;19.60;99.90
42031;DHT22;27709;52.036;5.906;2023-05-07T08:46:52;19.60;99.90
42031;DHT22;27709;52.036;5.906;2023-05-07T08:49:19;19.50;99.90
42031;DHT22;27709;52.036;5.906;2023-05-07T08:51:45;19.50;99.90
42031;DHT22;27709;52.036;5.906;2023-05-07T08:54:11;19.50;99.90
42031;DHT22;27709;52.036;5.906;2023-05-07T08:56:37;19.50;99.90
42031;DHT22;27709;52.036;5.906;2023-05-07T08:59:03;19.40;99.90
42031;DHT22;27709;52.036;5.906;2023-05-07T09:01:28;19.40;99.90
42031;DHT22;27709;52.036;5.906;2023-05-07T09:03:54;19.40;99.90
42031;DHT22;27709;52.036;5.906;2023-05-07T09:06:20;19.40;99.90
42031;DHT22;27709;52.036;5.906;2023-05-07T09:08:48;19.40;99.90
42031;DHT22;27709;52.036;5.906;2023-05-07T09:11:15;19.40;99.90
42031;DHT22;27709;52.036;5.906;2023-05-07T09:13:41;19.40;99.90
42031;DHT22;27709;52.036;5.906;2023-05-07T09:16:11;19.30;99.90
42031;DHT22;27709;52.036;5.906;2023-05-07T09:18:40;19.30;99.90
42031;DHT22;27709;52.036;5.906;2023-05-07T09:21:06;19.40;99.90
42031;DHT22;27709;52.036;5.906;2023-05-07T09:23:35;19.50;99.90
42031;DHT22;27709;52.036;5.906;2023-05-07T09:26:00;19.70;99.90
42031;DHT22;27709;52.036;5.906;2023-05-07T09:28:26;19.80;99.90
42031;DHT22;27709;52.036;5.906;2023-05-07T09:30:52;20.00;99.90
42031;DHT22;27709;52.036;5.906;2023-05-07T09:33:17;20.10;99.90
42031;DHT22;27709;52.036;5.906;2023-05-07T09:35:43;20.30;99.90
42031;DHT22;27709;52.036;5.906;2023-05-07T09:38:08;20.50;99.90
42031;DHT22;27709;52.036;5.906;2023-05-07T09:40:34;20.70;99.90
42031;DHT22;27709;52.036;5.906;2023-05-07T09:43:13;20.90;99.90
42031;DHT22;27709;52.036;5.906;2023-05-07T09:45:38;21.00;99.90
42031;DHT22;27709;52.036;5.906;2023-05-07T09:48:04;21.20;99.90
42031;DHT22;27709;52.036;5.906;2023-05-07T09:50:32;21.30;99.90
42031;DHT22;27709;52.036;5.906;2023-05-07T09:53:01;21.30;99.90
42031;DHT22;27709;52.036;5.906;2023-05-07T09:55:28;21.30;99.90
42031;DHT22;27709;52.036;5.906;2023-05-07T09:57:53;21.30;99.90
42031;DHT22;27709;52.036;5.906;2023-05-07T10:00:21;21.30;99.90
42031;DHT22;27709;52.036;5.906;2023-05-07T10:02:47;21.30;99.90
42031;DHT22;27709;52.036;5.906;2023-05-07T10:05:14;21.40;99.90
42031;DHT22;27709;52.036;5.906;2023-05-07T10:07:40;21.40;99.90
42031;DHT22;27709;52.036;5.906;2023-05-07T10:10:06;21.40;99.90
42031;DHT22;27709;52.036;5.906;2023-05-07T10:12:32;21.50;99.90
42031;DHT22;27709;52.036;5.906;2023-05-07T10:15:03;21.50;99.90
42031;DHT22;27709;52.036;5.906;2023-05-07T10:17:29;21.50;99.90
42031;DHT22;27709;52.036;5.906;2023-05-07T10:19:54;21.50;99.90
42031;DHT22;27709;52.036;5.906;2023-05-07T10:22:20;21.50;99.90
42031;DHT22;27709;52.036;5.906;2023-05-07T10:24:46;21.60;99.90
42031;DHT22;27709;52.036;5.906;2023-05-07T10:27:14;21.70;99.90
42031;DHT22;27709;52.036;5.906;2023-05-07T10:29:53;22.00;99.90
42031;DHT22;27709;52.036;5.906;2023-05-07T10:34:57;22.40;99.90
42031;DHT22;27709;52.036;5.906;2023-05-07T10:37:24;22.60;99.90
42031;DHT22;27709;52.036;5.906;2023-05-07T10:39:50;22.80;99.90
42031;DHT22;27709;52.036;5.906;2023-05-07T10:42:16;22.90;99.90
42031;DHT22;27709;52.036;5.906;2023-05-07T10:44:42;23.00;99.90
42031;DHT22;27709;52.036;5.906;2023-05-07T10:47:08;23.00;99.90
42031;DHT22;27709;52.036;5.906;2023-05-07T10:54:41;23.80;99.90
42031;DHT22;27709;52.036;5.906;2023-05-07T10:57:32;24.20;99.90
42031;DHT22;27709;52.036;5.906;2023-05-07T10:59:58;24.50;99.40
42031;DHT22;27709;52.036;5.906;2023-05-07T11:02:23;24.70;97.80
42031;DHT22;27709;52.036;5.906;2023-05-07T11:05:22;24.90;98.30
42031;DHT22;27709;52.036;5.906;2023-05-07T11:08:00;25.00;97.50
42031;DHT22;27709;52.036;5.906;2023-05-07T11:13:10;25.20;96.10
42031;DHT22;27709;52.036;5.906;2023-05-07T11:15:37;25.30;95.70
42031;DHT22;27709;52.036;5.906;2023-05-07T11:18:03;25.20;96.20
42031;DHT22;27709;52.036;5.906;2023-05-07T11:23:59;25.10;96.40
42031;DHT22;27709;52.036;5.906;2023-05-07T11:28:30;24.80;96.70
42031;DHT22;27709;52.036;5.906;2023-05-07T11:30:56;24.90;96.80
42031;DHT22;27709;52.036;5.906;2023-05-07T11:33:22;25.10;95.00
42031;DHT22;27709;52.036;5.906;2023-05-07T11:35:47;25.10;96.10
42031;DHT22;27709;52.036;5.906;2023-05-07T11:38:13;25.00;96.20
42031;DHT22;27709;52.036;5.906;2023-05-07T11:40:51;24.90;95.30
42031;DHT22;27709;52.036;5.906;2023-05-07T11:43:17;24.80;95.40
42031;DHT22;27709;52.036;5.906;2023-05-07T11:45:42;24.70;95.70
42031;DHT22;27709;52.036;5.906;2023-05-07T11:48:10;24.60;96.20
42031;DHT22;27709;52.036;5.906;2023-05-07T11:50:39;24.60;96.90
42031;DHT22;27709;52.036;5.906;2023-05-07T11:53:14;24.50;95.50
42031;DHT22;27709;52.036;5.906;2023-05-07T11:55:42;24.30;95.70
42031;DHT22;27709;52.036;5.906;2023-05-07T11:58:09;24.20;96.60
42031;DHT22;27709;52.036;5.906;2023-05-07T12:00:35;24.10;96.30
42031;DHT22;27709;52.036;5.906;2023-05-07T12:03:04;24.00;96.70
42031;DHT22;27709;52.036;5.906;2023-05-07T12:05:30;24.00;96.90
42031;DHT22;27709;52.036;5.906;2023-05-07T12:07:56;23.90;97.30
42031;DHT22;27709;52.036;5.906;2023-05-07T12:10:22;23.80;96.80
42031;DHT22;27709;52.036;5.906;2023-05-07T12:12:50;23.80;97.30
42031;DHT22;27709;52.036;5.906;2023-05-07T12:15:16;23.70;97.30
42031;DHT22;27709;52.036;5.906;2023-05-07T12:17:43;23.60;96.60
42031;DHT22;27709;52.036;5.906;2023-05-07T12:20:08;23.50;96.90
42031;DHT22;27709;52.036;5.906;2023-05-07T12:22:35;23.50;97.00
42031;DHT22;27709;52.036;5.906;2023-05-07T12:25:00;23.50;97.10
42031;DHT22;27709;52.036;5.906;2023-05-07T12:27:26;23.60;97.60
42031;DHT22;27709;52.036;5.906;2023-05-07T12:29:52;23.70;97.70
42031;DHT22;27709;52.036;5.906;2023-05-07T12:32:19;23.80;97.90
42031;DHT22;27709;52.036;5.906;2023-05-07T12:34:44;23.80;97.20
42031;DHT22;27709;52.036;5.906;2023-05-07T12:37:10;23.70;97.50
42031;DHT22;27709;52.036;5.906;2023-05-07T12:39:36;23.70;97.70
42031;DHT22;27709;52.036;5.906;2023-05-07T12:42:01;23.70;96.70
42031;DHT22;27709;52.036;5.906;2023-05-07T12:44:33;23.60;97.00
42031;DHT22;27709;52.036;5.906;2023-05-07T12:47:02;23.60;97.10
42031;DHT22;27709;52.036;5.906;2023-05-07T12:49:28;23.60;97.70
42031;DHT22;27709;52.036;5.906;2023-05-07T12:51:53;23.60;97.50
42031;DHT22;27709;52.036;5.906;2023-05-07T12:57:01;23.80;97.30
42031;DHT22;27709;52.036;5.906;2023-05-07T12:59:30;24.00;96.40
42031;DHT22;27709;52.036;5.906;2023-05-07T13:01:56;24.10;95.90
42031;DHT22;27709;52.036;5.906;2023-05-07T13:04:23;24.10;96.50
42031;DHT22;27709;52.036;5.906;2023-05-07T13:06:52;24.20;96.30
42031;DHT22;27709;52.036;5.906;2023-05-07T13:09:17;24.20;96.10
42031;DHT22;27709;52.036;5.906;2023-05-07T13:11:42;24.20;96.10
42031;DHT22;27709;52.036;5.906;2023-05-07T13:14:08;24.20;95.90
42031;DHT22;27709;52.036;5.906;2023-05-07T13:16:33;24.10;95.90
42031;DHT22;27709;52.036;5.906;2023-05-07T13:18:59;24.10;96.50
42031;DHT22;27709;52.036;5.906;2023-05-07T13:21:24;24.10;96.10
42031;DHT22;27709;52.036;5.906;2023-05-07T13:23:50;24.00;95.30
42031;DHT22;27709;52.036;5.906;2023-05-07T13:26:16;23.90;96.40
42031;DHT22;27709;52.036;5.906;2023-05-07T13:28:43;23.80;96.10
42031;DHT22;27709;52.036;5.906;2023-05-07T13:31:09;23.80;96.40
42031;DHT22;27709;52.036;5.906;2023-05-07T13:33:34;23.70;96.10
42031;DHT22;27709;52.036;5.906;2023-05-07T13:36:00;23.70;96.30
42031;DHT22;27709;52.036;5.906;2023-05-07T13:38:26;23.70;96.30
42031;DHT22;27709;52.036;5.906;2023-05-07T13:40:51;23.80;96.40
42031;DHT22;27709;52.036;5.906;2023-05-07T13:43:17;23.70;96.60
42031;DHT22;27709;52.036;5.906;2023-05-07T13:45:44;23.70;96.30
42031;DHT22;27709;52.036;5.906;2023-05-07T13:48:09;23.70;96.40
42031;DHT22;27709;52.036;5.906;2023-05-07T13:50:35;23.70;96.80
42031;DHT22;27709;52.036;5.906;2023-05-07T13:53:00;23.70;97.00
42031;DHT22;27709;52.036;5.906;2023-05-07T13:55:28;23.70;97.60
42031;DHT22;27709;52.036;5.906;2023-05-07T13:57:57;23.80;96.80
42031;DHT22;27709;52.036;5.906;2023-05-07T14:00:23;23.80;96.40
42031;DHT22;27709;52.036;5.906;2023-05-07T14:02:48;23.70;96.70
42031;DHT22;27709;52.036;5.906;2023-05-07T14:05:14;23.60;96.30
42031;DHT22;27709;52.036;5.906;2023-05-07T14:07:39;23.50;96.90
42031;DHT22;27709;52.036;5.906;2023-05-07T14:10:05;23.50;97.20
42031;DHT22;27709;52.036;5.906;2023-05-07T14:12:31;23.50;97.10
42031;DHT22;27709;52.036;5.906;2023-05-07T14:15:02;23.50;97.20
42031;DHT22;27709;52.036;5.906;2023-05-07T14:17:31;23.50;96.60
42031;DHT22;27709;52.036;5.906;2023-05-07T14:19:56;23.40;96.70
42031;DHT22;27709;52.036;5.906;2023-05-07T14:22:22;23.50;97.00
42031;DHT22;27709;52.036;5.906;2023-05-07T14:24:48;23.60;97.30
42031;DHT22;27709;52.036;5.906;2023-05-07T14:27:14;23.60;96.80
42031;DHT22;27709;52.036;5.906;2023-05-07T14:29:42;23.60;96.20
42031;DHT22;27709;52.036;5.906;2023-05-07T14:32:08;23.50;96.80
42031;DHT22;27709;52.036;5.906;2023-05-07T14:34:36;23.50;96.80
42031;DHT22;27709;52.036;5.906;2023-05-07T14:37:02;23.40;97.20
42031;DHT22;27709;52.036;5.906;2023-05-07T14:39:31;23.40;96.80
42031;DHT22;27709;52.036;5.906;2023-05-07T14:41:56;23.50;96.40
42031;DHT22;27709;52.036;5.906;2023-05-07T14:44:22;23.50;96.50
42031;DHT22;27709;52.036;5.906;2023-05-07T14:46:47;23.50;96.10
42031;DHT22;27709;52.036;5.906;2023-05-07T14:49:17;23.60;96.30
42031;DHT22;27709;52.036;5.906;2023-05-07T14:51:43;23.50;96.50
42031;DHT22;27709;52.036;5.906;2023-05-07T14:54:15;23.40;96.80
42031;DHT22;27709;52.036;5.906;2023-05-07T14:56:43;23.30;97.70
42031;DHT22;27709;52.036;5.906;2023-05-07T14:59:09;23.20;98.10
42031;DHT22;27709;52.036;5.906;2023-05-07T15:01:34;23.10;98.20
42031;DHT22;27709;52.036;5.906;2023-05-07T15:04:00;23.00;98.40
42031;DHT22;27709;52.036;5.906;2023-05-07T15:06:29;22.90;98.30
42031;DHT22;27709;52.036;5.906;2023-05-07T15:08:54;22.80;98.40
42031;DHT22;27709;52.036;5.906;2023-05-07T15:11:29;22.70;98.50
42031;DHT22;27709;52.036;5.906;2023-05-07T15:16:49;22.60;98.80
42031;DHT22;27709;52.036;5.906;2023-05-07T15:19:18;22.50;98.80
42031;DHT22;27709;52.036;5.906;2023-05-07T15:21:46;22.40;99.20
42031;DHT22;27709;52.036;5.906;2023-05-07T15:24:12;22.30;99.50
42031;DHT22;27709;52.036;5.906;2023-05-07T15:26:43;22.20;99.90
42031;DHT22;27709;52.036;5.906;2023-05-07T15:34:57;21.90;99.20
42031;DHT22;27709;52.036;5.906;2023-05-07T15:40:18;21.70;99.80
42031;DHT22;27709;52.036;5.906;2023-05-07T15:42:57;21.60;99.90
42031;DHT22;27709;52.036;5.906;2023-05-07T15:45:32;21.50;99.90
42031;DHT22;27709;52.036;5.906;2023-05-07T15:48:09;21.40;99.90
42031;DHT22;27709;52.036;5.906;2023-05-07T15:50:53;21.40;99.90
42031;DHT22;27709;52.036;5.906;2023-05-07T15:53:19;21.30;99.90
42031;DHT22;27709;52.036;5.906;2023-05-07T15:55:44;21.20;99.90